sensor_id;sensor_type;location;lat;lon;timestamp;P1;durP1;ratioP1;P2;durP2;ratioP2
56519;SDS011;42420;53.586;10.052;2024-02-28T00:04:40;14.98;;;11.73;;
56519;SDS011;42420;53.586;10.052;2024-02-28T00:09:38;16.77;;;13.00;;
56519;SDS011;42420;53.586;10.052;2024-02-28T00:14:34;19.45;;;14.30;;
56519;SDS011;42420;53.586;10.052;2024-02-28T00:19:31;19.60;;;14.73;;
56519;SDS011;42420;53.586;10.052;2024-02-28T00:24:28;21.27;;;15.88;;
56519;SDS011;42420;53.586;10.052;2024-02-28T00:29:27;21.48;;;16.35;;
56519;SDS011;42420;53.586;10.052;2024-02-28T00:34:24;23.60;;;16.77;;
56519;SDS011;42420;53.586;10.052;2024-02-28T00:39:22;21.92;;;16.55;;
56519;SDS011;42420;53.586;10.052;2024-02-28T00:44:19;23.48;;;17.42;;
56519;SDS011;42420;53.586;10.052;2024-02-28T00:49:15;25.45;;;18.45;;
56519;SDS011;42420;53.586;10.052;2024-02-28T00:54:12;23.15;;;17.30;;
56519;SDS011;42420;53.586;10.052;2024-02-28T00:59:10;22.83;;;17.35;;
56519;SDS011;42420;53.586;10.052;2024-02-28T01:04:09;24.55;;;18.02;;
56519;SDS011;42420;53.586;10.052;2024-02-28T01:09:06;22.65;;;17.45;;
56519;SDS011;42420;53.586;10.052;2024-02-28T01:14:02;23.80;;;17.55;;
56519;SDS011;42420;53.586;10.052;2024-02-28T01:18:59;22.40;;;17.95;;
56519;SDS011;42420;53.586;10.052;2024-02-28T01:23:56;27.48;;;19.15;;
56519;SDS011;42420;53.586;10.052;2024-02-28T01:28:53;24.27;;;17.13;;
56519;SDS011;42420;53.586;10.052;2024-02-28T01:33:51;27.75;;;19.27;;
56519;SDS011;42420;53.586;10.052;2024-02-28T01:38:49;25.33;;;18.38;;
56519;SDS011;42420;53.586;10.052;2024-02-28T01:43:45;25.75;;;18.83;;
56519;SDS011;42420;53.586;10.052;2024-02-28T01:48:42;24.15;;;17.42;;
56519;SDS011;42420;53.586;10.052;2024-02-28T01:53:39;23.65;;;17.55;;
56519;SDS011;42420;53.586;10.052;2024-02-28T01:58:35;26.85;;;20.08;;
56519;SDS011;42420;53.586;10.052;2024-02-28T02:03:32;31.15;;;19.98;;
56519;SDS011;42420;53.586;10.052;2024-02-28T02:08:30;28.02;;;19.23;;
56519;SDS011;42420;53.586;10.052;2024-02-28T02:13:27;27.13;;;18.70;;
56519;SDS011;42420;53.586;10.052;2024-02-28T02:18:24;28.73;;;19.10;;
56519;SDS011;42420;53.586;10.052;2024-02-28T02:23:22;27.05;;;19.27;;
56519;SDS011;42420;53.586;10.052;2024-02-28T02:28:19;29.42;;;19.63;;
56519;SDS011;42420;53.586;10.052;2024-02-28T02:38:12;26.52;;;18.15;;
56519;SDS011;42420;53.586;10.052;2024-02-28T02:43:09;28.67;;;18.52;;
56519;SDS011;42420;53.586;10.052;2024-02-28T02:48:06;27.85;;;18.60;;
56519;SDS011;42420;53.586;10.052;2024-02-28T02:53:03;28.77;;;17.15;;
56519;SDS011;42420;53.586;10.052;2024-02-28T02:58:00;24.45;;;15.95;;
56519;SDS011;42420;53.586;10.052;2024-02-28T03:02:59;26.52;;;17.45;;
56519;SDS011;42420;53.586;10.052;2024-02-28T03:07:56;24.52;;;15.90;;
56519;SDS011;42420;53.586;10.052;2024-02-28T03:12:52;29.67;;;16.27;;
56519;SDS011;42420;53.586;10.052;2024-02-28T03:17:49;26.33;;;15.35;;
56519;SDS011;42420;53.586;10.052;2024-02-28T03:22:46;24.02;;;15.73;;
56519;SDS011;42420;53.586;10.052;2024-02-28T03:27:42;23.77;;;15.23;;
56519;SDS011;42420;53.586;10.052;2024-02-28T03:32:39;24.98;;;15.68;;
56519;SDS011;42420;53.586;10.052;2024-02-28T03:37:36;22.50;;;14.32;;
56519;SDS011;42420;53.586;10.052;2024-02-28T03:42:33;22.77;;;13.98;;
56519;SDS011;42420;53.586;10.052;2024-02-28T03:52:26;22.70;;;13.75;;
56519;SDS011;42420;53.586;10.052;2024-02-28T03:57:23;21.83;;;13.90;;
56519;SDS011;42420;53.586;10.052;2024-02-28T04:02:20;24.60;;;15.02;;
56519;SDS011;42420;53.586;10.052;2024-02-28T04:07:17;24.83;;;15.20;;
56519;SDS011;42420;53.586;10.052;2024-02-28T04:12:14;24.27;;;14.93;;
56519;SDS011;42420;53.586;10.052;2024-02-28T04:17:10;23.02;;;14.30;;
56519;SDS011;42420;53.586;10.052;2024-02-28T04:27:04;25.35;;;14.98;;
56519;SDS011;42420;53.586;10.052;2024-02-28T04:32:01;27.77;;;16.30;;
56519;SDS011;42420;53.586;10.052;2024-02-28T04:36:59;27.63;;;16.42;;
56519;SDS011;42420;53.586;10.052;2024-02-28T04:42:02;27.48;;;15.85;;
56519;SDS011;42420;53.586;10.052;2024-02-28T04:46:59;25.92;;;16.02;;
56519;SDS011;42420;53.586;10.052;2024-02-28T05:17:50;26.00;;;15.73;;
56519;SDS011;42420;53.586;10.052;2024-02-28T05:22:51;28.38;;;16.67;;
56519;SDS011;42420;53.586;10.052;2024-02-28T05:27:50;24.77;;;14.77;;
56519;SDS011;42420;53.586;10.052;2024-02-28T05:32:49;25.77;;;14.90;;
56519;SDS011;42420;53.586;10.052;2024-02-28T05:37:47;28.17;;;16.50;;
56519;SDS011;42420;53.586;10.052;2024-02-28T05:49:03;25.93;;;16.10;;
56519;SDS011;42420;53.586;10.052;2024-02-28T05:54:03;24.92;;;15.98;;
56519;SDS011;42420;53.586;10.052;2024-02-28T05:59:19;26.42;;;16.33;;
56519;SDS011;42420;53.586;10.052;2024-02-28T06:05:06;26.17;;;16.23;;
56519;SDS011;42420;53.586;10.052;2024-02-28T06:10:19;26.02;;;16.50;;
56519;SDS011;42420;53.586;10.052;2024-02-28T06:16:04;23.98;;;14.27;;
56519;SDS011;42420;53.586;10.052;2024-02-28T06:21:29;20.95;;;12.40;;
56519;SDS011;42420;53.586;10.052;2024-02-28T06:26:35;18.23;;;11.45;;
56519;SDS011;42420;53.586;10.052;2024-02-28T06:32:15;19.67;;;12.57;;
56519;SDS011;42420;53.586;10.052;2024-02-28T06:37:55;17.88;;;11.63;;
56519;SDS011;42420;53.586;10.052;2024-02-28T06:42:59;18.63;;;11.23;;
56519;SDS011;42420;53.586;10.052;2024-02-28T06:48:00;24.33;;;11.90;;
56519;SDS011;42420;53.586;10.052;2024-02-28T06:53:03;14.77;;;10.30;;
56519;SDS011;42420;53.586;10.052;2024-02-28T06:58:05;18.98;;;11.63;;
56519;SDS011;42420;53.586;10.052;2024-02-28T07:03:07;19.58;;;11.27;;
56519;SDS011;42420;53.586;10.052;2024-02-28T07:08:04;16.40;;;10.32;;
56519;SDS011;42420;53.586;10.052;2024-02-28T07:13:05;16.90;;;10.35;;
56519;SDS011;42420;53.586;10.052;2024-02-28T07:18:04;18.42;;;10.93;;
56519;SDS011;42420;53.586;10.052;2024-02-28T07:23:12;19.17;;;11.27;;
56519;SDS011;42420;53.586;10.052;2024-02-28T07:28:56;18.00;;;10.60;;
56519;SDS011;42420;53.586;10.052;2024-02-28T07:34:28;17.80;;;10.23;;
56519;SDS011;42420;53.586;10.052;2024-02-28T07:39:33;19.48;;;11.07;;
56519;SDS011;42420;53.586;10.052;2024-02-28T07:44:53;20.23;;;10.55;;
56519;SDS011;42420;53.586;10.052;2024-02-28T07:49:59;19.10;;;10.77;;
56519;SDS011;42420;53.586;10.052;2024-02-28T07:55:46;18.05;;;11.65;;
56519;SDS011;42420;53.586;10.052;2024-02-28T08:01:12;20.42;;;13.23;;
56519;SDS011;42420;53.586;10.052;2024-02-28T08:06:11;20.08;;;11.23;;
56519;SDS011;42420;53.586;10.052;2024-02-28T08:11:12;20.00;;;11.82;;
56519;SDS011;42420;53.586;10.052;2024-02-28T08:21:42;20.88;;;12.45;;
56519;SDS011;42420;53.586;10.052;2024-02-28T08:27:18;18.92;;;12.75;;
56519;SDS011;42420;53.586;10.052;2024-02-28T08:32:17;22.25;;;12.55;;
56519;SDS011;42420;53.586;10.052;2024-02-28T08:37:20;18.33;;;12.00;;
56519;SDS011;42420;53.586;10.052;2024-02-28T08:42:19;22.73;;;13.48;;
56519;SDS011;42420;53.586;10.052;2024-02-28T08:47:54;29.88;;;15.30;;
56519;SDS011;42420;53.586;10.052;2024-02-28T08:53:05;23.13;;;14.85;;
56519;SDS011;42420;53.586;10.052;2024-02-28T08:58:22;25.75;;;15.32;;
56519;SDS011;42420;53.586;10.052;2024-02-28T09:04:08;27.75;;;16.38;;
56519;SDS011;42420;53.586;10.052;2024-02-28T09:09:56;26.17;;;16.65;;
56519;SDS011;42420;53.586;10.052;2024-02-28T09:15:51;25.05;;;16.10;;
56519;SDS011;42420;53.586;10.052;2024-02-28T09:22:01;27.38;;;17.98;;
56519;SDS011;42420;53.586;10.052;2024-02-28T09:27:40;32.53;;;18.30;;
56519;SDS011;42420;53.586;10.052;2024-02-28T09:32:43;27.70;;;17.45;;
56519;SDS011;42420;53.586;10.052;2024-02-28T09:37:48;29.40;;;17.73;;
56519;SDS011;42420;53.586;10.052;2024-02-28T09:43:03;27.73;;;17.17;;
56519;SDS011;42420;53.586;10.052;2024-02-28T09:48:04;26.00;;;15.50;;
56519;SDS011;42420;53.586;10.052;2024-02-28T09:53:07;25.05;;;16.55;;
56519;SDS011;42420;53.586;10.052;2024-02-28T09:58:12;28.25;;;17.33;;
56519;SDS011;42420;53.586;10.052;2024-02-28T10:03:18;29.98;;;17.52;;
56519;SDS011;42420;53.586;10.052;2024-02-28T10:08:40;32.75;;;16.05;;
56519;SDS011;42420;53.586;10.052;2024-02-28T10:14:35;24.42;;;14.70;;
56519;SDS011;42420;53.586;10.052;2024-02-28T10:19:41;27.05;;;15.55;;
56519;SDS011;42420;53.586;10.052;2024-02-28T10:24:41;21.17;;;13.70;;
56519;SDS011;42420;53.586;10.052;2024-02-28T10:30:03;20.40;;;12.77;;
56519;SDS011;42420;53.586;10.052;2024-02-28T10:35:08;19.08;;;12.32;;
56519;SDS011;42420;53.586;10.052;2024-02-28T10:40:08;26.05;;;14.23;;
56519;SDS011;42420;53.586;10.052;2024-02-28T10:45:10;22.73;;;14.13;;
56519;SDS011;42420;53.586;10.052;2024-02-28T10:50:25;19.45;;;11.88;;
56519;SDS011;42420;53.586;10.052;2024-02-28T10:55:23;22.08;;;13.45;;
56519;SDS011;42420;53.586;10.052;2024-02-28T11:00:22;24.05;;;13.95;;
56519;SDS011;42420;53.586;10.052;2024-02-28T11:05:22;20.67;;;11.90;;
56519;SDS011;42420;53.586;10.052;2024-02-28T11:10:45;22.42;;;11.88;;
56519;SDS011;42420;53.586;10.052;2024-02-28T11:17:01;20.95;;;12.32;;
56519;SDS011;42420;53.586;10.052;2024-02-28T11:22:28;24.25;;;12.68;;
56519;SDS011;42420;53.586;10.052;2024-02-28T11:28:10;20.85;;;12.65;;
56519;SDS011;42420;53.586;10.052;2024-02-28T11:34:13;21.52;;;12.05;;
56519;SDS011;42420;53.586;10.052;2024-02-28T11:39:40;23.38;;;11.43;;
56519;SDS011;42420;53.586;10.052;2024-02-28T11:45:01;20.90;;;12.68;;
56519;SDS011;42420;53.586;10.052;2024-02-28T11:50:22;21.52;;;11.50;;
56519;SDS011;42420;53.586;10.052;2024-02-28T11:55:38;21.08;;;12.18;;
56519;SDS011;42420;53.586;10.052;2024-02-28T12:00:51;19.83;;;11.77;;
56519;SDS011;42420;53.586;10.052;2024-02-28T12:05:56;19.08;;;11.30;;
56519;SDS011;42420;53.586;10.052;2024-02-28T12:11:37;20.77;;;13.35;;
56519;SDS011;42420;53.586;10.052;2024-02-28T12:17:04;28.40;;;13.35;;
56519;SDS011;42420;53.586;10.052;2024-02-28T12:22:23;21.80;;;13.77;;
56519;SDS011;42420;53.586;10.052;2024-02-28T12:27:46;21.40;;;12.20;;
56519;SDS011;42420;53.586;10.052;2024-02-28T12:33:01;23.25;;;12.60;;
56519;SDS011;42420;53.586;10.052;2024-02-28T12:38:20;21.20;;;13.15;;
56519;SDS011;42420;53.586;10.052;2024-02-28T12:43:24;23.60;;;14.73;;
56519;SDS011;42420;53.586;10.052;2024-02-28T12:48:54;22.55;;;13.15;;
56519;SDS011;42420;53.586;10.052;2024-02-28T12:53:54;20.77;;;12.27;;
56519;SDS011;42420;53.586;10.052;2024-02-28T12:59:13;21.90;;;13.30;;
56519;SDS011;42420;53.586;10.052;2024-02-28T13:04:18;21.65;;;12.63;;
56519;SDS011;42420;53.586;10.052;2024-02-28T13:09:24;22.43;;;13.40;;
56519;SDS011;42420;53.586;10.052;2024-02-28T13:14:26;22.55;;;12.80;;
56519;SDS011;42420;53.586;10.052;2024-02-28T13:19:35;22.48;;;13.13;;
56519;SDS011;42420;53.586;10.052;2024-02-28T13:30:42;18.35;;;11.63;;
56519;SDS011;42420;53.586;10.052;2024-02-28T13:35:56;21.65;;;11.20;;
56519;SDS011;42420;53.586;10.052;2024-02-28T13:41:16;18.40;;;11.27;;
56519;SDS011;42420;53.586;10.052;2024-02-28T13:46:40;17.42;;;11.05;;
56519;SDS011;42420;53.586;10.052;2024-02-28T13:52:00;16.27;;;9.55;;
56519;SDS011;42420;53.586;10.052;2024-02-28T13:57:18;17.02;;;10.13;;
56519;SDS011;42420;53.586;10.052;2024-02-28T14:02:32;16.83;;;9.82;;
56519;SDS011;42420;53.586;10.052;2024-02-28T14:07:34;25.40;;;11.15;;
56519;SDS011;42420;53.586;10.052;2024-02-28T14:12:35;17.13;;;10.80;;
56519;SDS011;42420;53.586;10.052;2024-02-28T14:17:40;19.65;;;9.70;;
56519;SDS011;42420;53.586;10.052;2024-02-28T14:22:56;20.95;;;10.32;;
56519;SDS011;42420;53.586;10.052;2024-02-28T14:28:00;20.58;;;10.82;;
56519;SDS011;42420;53.586;10.052;2024-02-28T14:33:00;17.85;;;10.65;;
56519;SDS011;42420;53.586;10.052;2024-02-28T14:38:04;19.73;;;11.15;;
56519;SDS011;42420;53.586;10.052;2024-02-28T14:43:03;19.30;;;10.80;;
56519;SDS011;42420;53.586;10.052;2024-02-28T14:48:15;20.15;;;10.85;;
56519;SDS011;42420;53.586;10.052;2024-02-28T14:53:38;19.17;;;9.45;;
56519;SDS011;42420;53.586;10.052;2024-02-28T14:58:54;16.95;;;8.75;;
56519;SDS011;42420;53.586;10.052;2024-02-28T15:03:51;15.05;;;8.15;;
56519;SDS011;42420;53.586;10.052;2024-02-28T15:13:45;12.38;;;7.55;;
56519;SDS011;42420;53.586;10.052;2024-02-28T15:18:42;15.75;;;7.93;;
56519;SDS011;42420;53.586;10.052;2024-02-28T15:23:41;14.40;;;8.65;;
56519;SDS011;42420;53.586;10.052;2024-02-28T15:28:38;11.90;;;7.40;;
56519;SDS011;42420;53.586;10.052;2024-02-28T15:33:35;15.23;;;7.93;;
56519;SDS011;42420;53.586;10.052;2024-02-28T15:43:30;14.57;;;7.30;;
56519;SDS011;42420;53.586;10.052;2024-02-28T15:48:27;13.90;;;7.90;;
56519;SDS011;42420;53.586;10.052;2024-02-28T15:53:28;14.93;;;8.70;;
56519;SDS011;42420;53.586;10.052;2024-02-28T15:58:24;15.32;;;8.63;;
56519;SDS011;42420;53.586;10.052;2024-02-28T16:03:23;14.48;;;8.32;;
56519;SDS011;42420;53.586;10.052;2024-02-28T16:14:18;14.02;;;7.47;;
56519;SDS011;42420;53.586;10.052;2024-02-28T16:19:16;15.13;;;7.72;;
56519;SDS011;42420;53.586;10.052;2024-02-28T16:24:22;17.75;;;8.70;;
56519;SDS011;42420;53.586;10.052;2024-02-28T16:29:19;13.70;;;7.72;;
56519;SDS011;42420;53.586;10.052;2024-02-28T16:34:17;14.80;;;7.75;;
56519;SDS011;42420;53.586;10.052;2024-02-28T16:39:17;14.23;;;8.32;;
56519;SDS011;42420;53.586;10.052;2024-02-28T16:44:15;16.65;;;8.65;;
56519;SDS011;42420;53.586;10.052;2024-02-28T16:49:17;15.55;;;8.70;;
56519;SDS011;42420;53.586;10.052;2024-02-28T16:54:38;17.17;;;9.05;;
56519;SDS011;42420;53.586;10.052;2024-02-28T16:59:45;18.45;;;10.43;;
56519;SDS011;42420;53.586;10.052;2024-02-28T17:04:43;17.10;;;9.73;;
56519;SDS011;42420;53.586;10.052;2024-02-28T17:09:40;19.67;;;9.63;;
56519;SDS011;42420;53.586;10.052;2024-02-28T17:14:36;18.25;;;9.98;;
56519;SDS011;42420;53.586;10.052;2024-02-28T17:19:33;18.83;;;9.95;;
56519;SDS011;42420;53.586;10.052;2024-02-28T17:24:30;22.50;;;11.43;;
56519;SDS011;42420;53.586;10.052;2024-02-28T17:29:27;20.75;;;11.32;;
56519;SDS011;42420;53.586;10.052;2024-02-28T17:34:23;20.13;;;11.63;;
56519;SDS011;42420;53.586;10.052;2024-02-28T17:39:20;23.35;;;12.10;;
56519;SDS011;42420;53.586;10.052;2024-02-28T17:44:18;21.27;;;11.50;;
56519;SDS011;42420;53.586;10.052;2024-02-28T17:49:14;24.60;;;13.20;;
56519;SDS011;42420;53.586;10.052;2024-02-28T17:54:12;26.00;;;13.18;;
56519;SDS011;42420;53.586;10.052;2024-02-28T17:59:09;23.63;;;13.73;;
56519;SDS011;42420;53.586;10.052;2024-02-28T18:09:02;26.48;;;12.77;;
56519;SDS011;42420;53.586;10.052;2024-02-28T18:14:01;27.00;;;14.52;;
56519;SDS011;42420;53.586;10.052;2024-02-28T18:18:57;23.60;;;13.65;;
56519;SDS011;42420;53.586;10.052;2024-02-28T18:23:54;26.20;;;13.70;;
56519;SDS011;42420;53.586;10.052;2024-02-28T18:28:51;23.77;;;13.00;;
56519;SDS011;42420;53.586;10.052;2024-02-28T18:33:47;23.73;;;13.57;;
56519;SDS011;42420;53.586;10.052;2024-02-28T18:38:44;27.55;;;14.27;;
56519;SDS011;42420;53.586;10.052;2024-02-28T18:43:41;29.27;;;14.20;;
56519;SDS011;42420;53.586;10.052;2024-02-28T18:48:41;26.17;;;14.02;;
56519;SDS011;42420;53.586;10.052;2024-02-28T18:53:40;26.13;;;13.52;;
56519;SDS011;42420;53.586;10.052;2024-02-28T18:58:39;23.45;;;13.20;;
56519;SDS011;42420;53.586;10.052;2024-02-28T19:03:36;24.02;;;12.68;;
56519;SDS011;42420;53.586;10.052;2024-02-28T19:08:33;24.73;;;11.90;;
56519;SDS011;42420;53.586;10.052;2024-02-28T19:13:31;23.55;;;12.75;;
56519;SDS011;42420;53.586;10.052;2024-02-28T19:18:30;21.35;;;12.73;;
56519;SDS011;42420;53.586;10.052;2024-02-28T19:23:27;21.33;;;11.60;;
56519;SDS011;42420;53.586;10.052;2024-02-28T19:33:21;17.25;;;10.20;;
56519;SDS011;42420;53.586;10.052;2024-02-28T19:38:18;18.17;;;11.05;;
56519;SDS011;42420;53.586;10.052;2024-02-28T19:43:15;19.17;;;11.30;;
56519;SDS011;42420;53.586;10.052;2024-02-28T19:48:19;19.35;;;10.55;;
56519;SDS011;42420;53.586;10.052;2024-02-28T19:53:16;22.42;;;11.70;;
56519;SDS011;42420;53.586;10.052;2024-02-28T19:58:13;20.40;;;11.80;;
56519;SDS011;42420;53.586;10.052;2024-02-28T20:03:10;19.70;;;11.13;;
56519;SDS011;42420;53.586;10.052;2024-02-28T20:08:07;17.40;;;8.52;;
56519;SDS011;42420;53.586;10.052;2024-02-28T20:13:07;15.13;;;8.30;;
56519;SDS011;42420;53.586;10.052;2024-02-28T20:18:03;15.77;;;9.50;;
56519;SDS011;42420;53.586;10.052;2024-02-28T20:23:01;17.10;;;9.50;;
56519;SDS011;42420;53.586;10.052;2024-02-28T20:27:58;16.33;;;8.73;;
56519;SDS011;42420;53.586;10.052;2024-02-28T20:37:51;19.13;;;10.50;;
56519;SDS011;42420;53.586;10.052;2024-02-28T20:42:50;19.42;;;10.82;;
56519;SDS011;42420;53.586;10.052;2024-02-28T20:47:47;19.83;;;10.85;;
56519;SDS011;42420;53.586;10.052;2024-02-28T20:52:44;18.73;;;10.85;;
56519;SDS011;42420;53.586;10.052;2024-02-28T20:57:41;22.08;;;11.90;;
56519;SDS011;42420;53.586;10.052;2024-02-28T21:02:40;21.45;;;11.50;;
56519;SDS011;42420;53.586;10.052;2024-02-28T21:12:48;22.08;;;11.95;;
56519;SDS011;42420;53.586;10.052;2024-02-28T21:17:45;22.23;;;12.20;;
56519;SDS011;42420;53.586;10.052;2024-02-28T21:22:44;21.70;;;12.05;;
56519;SDS011;42420;53.586;10.052;2024-02-28T21:27:41;23.38;;;13.32;;
56519;SDS011;42420;53.586;10.052;2024-02-28T21:32:38;23.65;;;13.18;;
56519;SDS011;42420;53.586;10.052;2024-02-28T21:37:36;24.50;;;13.68;;
56519;SDS011;42420;53.586;10.052;2024-02-28T21:42:34;25.77;;;15.07;;
56519;SDS011;42420;53.586;10.052;2024-02-28T21:47:31;24.05;;;13.18;;
56519;SDS011;42420;53.586;10.052;2024-02-28T21:52:27;26.75;;;13.13;;
56519;SDS011;42420;53.586;10.052;2024-02-28T21:57:26;27.23;;;14.50;;
56519;SDS011;42420;53.586;10.052;2024-02-28T22:02:23;23.60;;;13.02;;
56519;SDS011;42420;53.586;10.052;2024-02-28T22:07:20;25.55;;;13.57;;
56519;SDS011;42420;53.586;10.052;2024-02-28T22:12:22;27.95;;;14.85;;
56519;SDS011;42420;53.586;10.052;2024-02-28T22:17:19;27.48;;;13.82;;
56519;SDS011;42420;53.586;10.052;2024-02-28T22:22:15;23.65;;;13.40;;
56519;SDS011;42420;53.586;10.052;2024-02-28T22:27:15;26.83;;;13.60;;
56519;SDS011;42420;53.586;10.052;2024-02-28T22:32:11;26.38;;;13.40;;
56519;SDS011;42420;53.586;10.052;2024-02-28T22:37:09;24.55;;;14.25;;
56519;SDS011;42420;53.586;10.052;2024-02-28T22:42:06;26.13;;;14.88;;
56519;SDS011;42420;53.586;10.052;2024-02-28T22:47:03;24.30;;;13.43;;
56519;SDS011;42420;53.586;10.052;2024-02-28T22:52:02;25.83;;;13.80;;
56519;SDS011;42420;53.586;10.052;2024-02-28T22:56:59;26.67;;;15.00;;
56519;SDS011;42420;53.586;10.052;2024-02-28T23:01:57;25.65;;;13.93;;
56519;SDS011;42420;53.586;10.052;2024-02-28T23:06:54;24.85;;;13.68;;
56519;SDS011;42420;53.586;10.052;2024-02-28T23:11:51;28.73;;;14.10;;
56519;SDS011;42420;53.586;10.052;2024-02-28T23:16:48;29.25;;;15.35;;
56519;SDS011;42420;53.586;10.052;2024-02-28T23:26:52;27.45;;;14.60;;
56519;SDS011;42420;53.586;10.052;2024-02-28T23:31:49;29.40;;;15.50;;
56519;SDS011;42420;53.586;10.052;2024-02-28T23:36:46;30.02;;;16.70;;
56519;SDS011;42420;53.586;10.052;2024-02-28T23:41:44;32.97;;;16.35;;
56519;SDS011;42420;53.586;10.052;2024-02-28T23:46:41;29.55;;;17.08;;
56519;SDS011;42420;53.586;10.052;2024-02-28T23:51:38;31.75;;;16.73;;
56519;SDS011;42420;53.586;10.052;2024-02-28T23:56:34;32.38;;;17.20;;
